sensor_id;sensor_type;location;lat;lon;timestamp;temperature;humidity
20690;DHT22;10504;48.762;8.996;2023-11-18T00:01:21;5.30;99.90
20690;DHT22;10504;48.762;8.996;2023-11-18T00:03:48;5.30;99.90
20690;DHT22;10504;48.762;8.996;2023-11-18T00:06:14;5.30;99.90
20690;DHT22;10504;48.762;8.996;2023-11-18T00:08:39;5.30;99.90
20690;DHT22;10504;48.762;8.996;2023-11-18T00:11:05;5.30;99.90
20690;DHT22;10504;48.762;8.996;2023-11-18T00:13:30;5.20;99.90
20690;DHT22;10504;48.762;8.996;2023-11-18T00:15:56;5.30;99.90
20690;DHT22;10504;48.762;8.996;2023-11-18T00:18:23;5.20;99.90
20690;DHT22;10504;48.762;8.996;2023-11-18T00:20:49;5.30;99.90
20690;DHT22;10504;48.762;8.996;2023-11-18T00:23:16;5.30;99.90
20690;DHT22;10504;48.762;8.996;2023-11-18T00:25:42;5.30;99.90
20690;DHT22;10504;48.762;8.996;2023-11-18T00:28:11;5.30;99.90
20690;DHT22;10504;48.762;8.996;2023-11-18T00:30:37;5.30;99.90
20690;DHT22;10504;48.762;8.996;2023-11-18T00:33:03;5.30;99.90
20690;DHT22;10504;48.762;8.996;2023-11-18T00:35:28;5.30;99.90
20690;DHT22;10504;48.762;8.996;2023-11-18T00:37:57;5.30;99.90
20690;DHT22;10504;48.762;8.996;2023-11-18T00:40:24;5.30;99.90
20690;DHT22;10504;48.762;8.996;2023-11-18T00:42:49;5.30;99.90
20690;DHT22;10504;48.762;8.996;2023-11-18T00:45:15;5.30;99.90
20690;DHT22;10504;48.762;8.996;2023-11-18T00:47:41;5.30;99.90
20690;DHT22;10504;48.762;8.996;2023-11-18T00:50:07;5.30;99.90
20690;DHT22;10504;48.762;8.996;2023-11-18T00:52:33;5.30;99.90
20690;DHT22;10504;48.762;8.996;2023-11-18T00:55:00;5.30;99.90
20690;DHT22;10504;48.762;8.996;2023-11-18T00:57:26;5.40;99.90
20690;DHT22;10504;48.762;8.996;2023-11-18T00:59:52;5.40;99.90
20690;DHT22;10504;48.762;8.996;2023-11-18T01:02:18;5.40;99.90
20690;DHT22;10504;48.762;8.996;2023-11-18T01:04:44;5.40;99.90
20690;DHT22;10504;48.762;8.996;2023-11-18T01:07:11;5.40;99.90
20690;DHT22;10504;48.762;8.996;2023-11-18T01:09:37;5.40;99.90
20690;DHT22;10504;48.762;8.996;2023-11-18T01:12:05;5.40;99.90
20690;DHT22;10504;48.762;8.996;2023-11-18T01:14:31;5.40;99.90
20690;DHT22;10504;48.762;8.996;2023-11-18T01:16:57;5.40;99.90
20690;DHT22;10504;48.762;8.996;2023-11-18T01:19:23;5.40;99.90
20690;DHT22;10504;48.762;8.996;2023-11-18T01:21:49;5.40;99.90
20690;DHT22;10504;48.762;8.996;2023-11-18T01:24:15;5.40;99.90
20690;DHT22;10504;48.762;8.996;2023-11-18T01:26:41;5.40;99.90
20690;DHT22;10504;48.762;8.996;2023-11-18T01:29:07;5.40;99.90
20690;DHT22;10504;48.762;8.996;2023-11-18T01:31:33;5.40;99.90
20690;DHT22;10504;48.762;8.996;2023-11-18T01:33:58;5.40;99.90
20690;DHT22;10504;48.762;8.996;2023-11-18T01:36:27;5.40;99.90
20690;DHT22;10504;48.762;8.996;2023-11-18T01:38:53;5.40;99.90
20690;DHT22;10504;48.762;8.996;2023-11-18T01:41:20;5.40;99.90
20690;DHT22;10504;48.762;8.996;2023-11-18T01:43:46;5.40;99.90
20690;DHT22;10504;48.762;8.996;2023-11-18T01:46:12;5.40;99.90
20690;DHT22;10504;48.762;8.996;2023-11-18T01:48:39;5.40;99.90
20690;DHT22;10504;48.762;8.996;2023-11-18T01:51:06;5.40;99.90
20690;DHT22;10504;48.762;8.996;2023-11-18T01:53:34;5.40;99.90
20690;DHT22;10504;48.762;8.996;2023-11-18T01:56:02;5.40;99.90
20690;DHT22;10504;48.762;8.996;2023-11-18T01:58:28;5.40;99.90
20690;DHT22;10504;48.762;8.996;2023-11-18T02:00:57;5.50;99.90
20690;DHT22;10504;48.762;8.996;2023-11-18T02:03:23;5.40;99.90
20690;DHT22;10504;48.762;8.996;2023-11-18T02:05:48;5.50;99.90
20690;DHT22;10504;48.762;8.996;2023-11-18T02:08:14;5.40;99.90
20690;DHT22;10504;48.762;8.996;2023-11-18T02:15:53;5.40;99.90
20690;DHT22;10504;48.762;8.996;2023-11-18T02:18:19;5.40;99.90
20690;DHT22;10504;48.762;8.996;2023-11-18T02:20:46;5.40;99.90
20690;DHT22;10504;48.762;8.996;2023-11-18T02:23:13;5.40;99.90
20690;DHT22;10504;48.762;8.996;2023-11-18T02:25:46;5.40;99.90
20690;DHT22;10504;48.762;8.996;2023-11-18T02:28:13;5.40;99.90
20690;DHT22;10504;48.762;8.996;2023-11-18T02:30:39;5.50;99.90
20690;DHT22;10504;48.762;8.996;2023-11-18T02:33:21;5.40;99.90
20690;DHT22;10504;48.762;8.996;2023-11-18T02:36:04;5.40;99.90
20690;DHT22;10504;48.762;8.996;2023-11-18T02:38:35;5.40;99.90
20690;DHT22;10504;48.762;8.996;2023-11-18T02:41:06;5.40;99.90
20690;DHT22;10504;48.762;8.996;2023-11-18T02:43:36;5.30;99.90
20690;DHT22;10504;48.762;8.996;2023-11-18T02:46:04;5.30;99.90
20690;DHT22;10504;48.762;8.996;2023-11-18T02:48:32;5.30;99.90
20690;DHT22;10504;48.762;8.996;2023-11-18T02:50:58;5.20;99.90
20690;DHT22;10504;48.762;8.996;2023-11-18T02:53:24;5.20;99.90
20690;DHT22;10504;48.762;8.996;2023-11-18T02:55:50;5.10;99.90
20690;DHT22;10504;48.762;8.996;2023-11-18T02:58:18;5.00;99.90
20690;DHT22;10504;48.762;8.996;2023-11-18T03:00:43;4.90;99.90
20690;DHT22;10504;48.762;8.996;2023-11-18T03:03:10;4.90;99.90
20690;DHT22;10504;48.762;8.996;2023-11-18T03:05:37;4.80;99.90
20690;DHT22;10504;48.762;8.996;2023-11-18T03:08:03;4.70;99.90
20690;DHT22;10504;48.762;8.996;2023-11-18T03:10:32;4.70;99.90
20690;DHT22;10504;48.762;8.996;2023-11-18T03:13:00;4.70;99.90
20690;DHT22;10504;48.762;8.996;2023-11-18T03:15:27;4.70;99.90
20690;DHT22;10504;48.762;8.996;2023-11-18T03:17:54;4.60;99.90
20690;DHT22;10504;48.762;8.996;2023-11-18T03:20:20;4.60;99.90
20690;DHT22;10504;48.762;8.996;2023-11-18T03:22:48;4.50;99.90
20690;DHT22;10504;48.762;8.996;2023-11-18T03:25:16;4.60;99.90
20690;DHT22;10504;48.762;8.996;2023-11-18T03:27:42;4.50;99.90
20690;DHT22;10504;48.762;8.996;2023-11-18T03:30:08;4.50;99.90
20690;DHT22;10504;48.762;8.996;2023-11-18T03:32:38;4.40;99.90
20690;DHT22;10504;48.762;8.996;2023-11-18T03:35:06;4.40;99.90
20690;DHT22;10504;48.762;8.996;2023-11-18T03:37:39;4.40;99.90
20690;DHT22;10504;48.762;8.996;2023-11-18T03:40:11;4.40;99.90
20690;DHT22;10504;48.762;8.996;2023-11-18T03:42:43;4.30;99.90
20690;DHT22;10504;48.762;8.996;2023-11-18T03:45:09;4.30;99.90
20690;DHT22;10504;48.762;8.996;2023-11-18T03:47:35;4.30;99.90
20690;DHT22;10504;48.762;8.996;2023-11-18T03:50:00;4.30;99.90
20690;DHT22;10504;48.762;8.996;2023-11-18T03:52:26;4.30;99.90
20690;DHT22;10504;48.762;8.996;2023-11-18T03:54:53;4.30;99.90
20690;DHT22;10504;48.762;8.996;2023-11-18T03:57:20;4.30;99.90
20690;DHT22;10504;48.762;8.996;2023-11-18T03:59:46;4.30;99.90
20690;DHT22;10504;48.762;8.996;2023-11-18T04:02:12;4.30;99.90
20690;DHT22;10504;48.762;8.996;2023-11-18T04:04:38;4.30;99.90
20690;DHT22;10504;48.762;8.996;2023-11-18T04:07:04;4.30;99.90
20690;DHT22;10504;48.762;8.996;2023-11-18T04:09:30;4.30;99.90
20690;DHT22;10504;48.762;8.996;2023-11-18T04:11:55;4.30;99.90
20690;DHT22;10504;48.762;8.996;2023-11-18T04:14:21;4.40;99.90
20690;DHT22;10504;48.762;8.996;2023-11-18T04:16:48;4.40;99.90
20690;DHT22;10504;48.762;8.996;2023-11-18T04:19:14;4.40;99.90
20690;DHT22;10504;48.762;8.996;2023-11-18T04:21:40;4.40;99.90
20690;DHT22;10504;48.762;8.996;2023-11-18T04:24:06;4.40;99.90
20690;DHT22;10504;48.762;8.996;2023-11-18T04:26:32;4.50;99.90
20690;DHT22;10504;48.762;8.996;2023-11-18T04:28:58;4.50;99.90
20690;DHT22;10504;48.762;8.996;2023-11-18T04:31:24;4.50;99.90
20690;DHT22;10504;48.762;8.996;2023-11-18T04:33:50;4.50;99.90
20690;DHT22;10504;48.762;8.996;2023-11-18T04:36:16;4.50;99.90
20690;DHT22;10504;48.762;8.996;2023-11-18T04:38:42;4.60;99.90
20690;DHT22;10504;48.762;8.996;2023-11-18T04:41:09;4.60;99.90
20690;DHT22;10504;48.762;8.996;2023-11-18T04:43:35;4.60;99.90
20690;DHT22;10504;48.762;8.996;2023-11-18T04:46:00;4.60;99.90
20690;DHT22;10504;48.762;8.996;2023-11-18T04:48:26;4.60;99.90
20690;DHT22;10504;48.762;8.996;2023-11-18T04:50:51;4.60;99.90
20690;DHT22;10504;48.762;8.996;2023-11-18T04:53:17;4.60;99.90
20690;DHT22;10504;48.762;8.996;2023-11-18T04:55:43;4.60;99.90
20690;DHT22;10504;48.762;8.996;2023-11-18T04:58:08;4.50;99.90
20690;DHT22;10504;48.762;8.996;2023-11-18T05:00:38;4.50;99.90
20690;DHT22;10504;48.762;8.996;2023-11-18T05:03:07;4.50;99.90
20690;DHT22;10504;48.762;8.996;2023-11-18T05:05:36;4.50;99.90
20690;DHT22;10504;48.762;8.996;2023-11-18T05:08:06;4.50;99.90
20690;DHT22;10504;48.762;8.996;2023-11-18T05:10:33;4.60;99.90
20690;DHT22;10504;48.762;8.996;2023-11-18T05:12:59;4.60;99.90
20690;DHT22;10504;48.762;8.996;2023-11-18T05:15:25;4.60;99.90
20690;DHT22;10504;48.762;8.996;2023-11-18T05:17:51;4.60;99.90
20690;DHT22;10504;48.762;8.996;2023-11-18T05:20:17;4.60;99.90
20690;DHT22;10504;48.762;8.996;2023-11-18T05:22:43;4.70;99.90
20690;DHT22;10504;48.762;8.996;2023-11-18T05:25:09;4.70;99.90
20690;DHT22;10504;48.762;8.996;2023-11-18T05:27:35;4.70;99.90
20690;DHT22;10504;48.762;8.996;2023-11-18T05:30:01;4.70;99.90
20690;DHT22;10504;48.762;8.996;2023-11-18T05:32:28;4.60;99.90
20690;DHT22;10504;48.762;8.996;2023-11-18T05:34:53;4.60;99.90
20690;DHT22;10504;48.762;8.996;2023-11-18T05:37:24;4.60;99.90
20690;DHT22;10504;48.762;8.996;2023-11-18T05:39:50;4.60;99.90
20690;DHT22;10504;48.762;8.996;2023-11-18T05:42:25;4.60;99.90
20690;DHT22;10504;48.762;8.996;2023-11-18T05:44:51;4.60;99.90
20690;DHT22;10504;48.762;8.996;2023-11-18T05:47:24;4.60;99.90
20690;DHT22;10504;48.762;8.996;2023-11-18T05:49:51;4.60;99.90
20690;DHT22;10504;48.762;8.996;2023-11-18T05:52:17;4.60;99.90
20690;DHT22;10504;48.762;8.996;2023-11-18T05:54:42;4.60;99.90
20690;DHT22;10504;48.762;8.996;2023-11-18T05:57:08;4.60;99.90
20690;DHT22;10504;48.762;8.996;2023-11-18T05:59:33;4.60;99.90
20690;DHT22;10504;48.762;8.996;2023-11-18T06:01:59;4.60;99.90
20690;DHT22;10504;48.762;8.996;2023-11-18T06:04:25;4.60;99.90
20690;DHT22;10504;48.762;8.996;2023-11-18T06:06:51;4.60;99.90
20690;DHT22;10504;48.762;8.996;2023-11-18T06:09:17;4.60;99.90
20690;DHT22;10504;48.762;8.996;2023-11-18T06:11:51;4.60;99.90
20690;DHT22;10504;48.762;8.996;2023-11-18T06:14:19;4.60;99.90
20690;DHT22;10504;48.762;8.996;2023-11-18T06:16:44;4.60;99.90
20690;DHT22;10504;48.762;8.996;2023-11-18T06:19:10;4.50;99.90
20690;DHT22;10504;48.762;8.996;2023-11-18T06:21:36;4.50;99.90
20690;DHT22;10504;48.762;8.996;2023-11-18T06:24:02;4.50;99.90
20690;DHT22;10504;48.762;8.996;2023-11-18T06:26:31;4.50;99.90
20690;DHT22;10504;48.762;8.996;2023-11-18T06:28:57;4.50;99.90
20690;DHT22;10504;48.762;8.996;2023-11-18T06:31:25;4.40;99.90
20690;DHT22;10504;48.762;8.996;2023-11-18T06:33:51;4.40;99.90
20690;DHT22;10504;48.762;8.996;2023-11-18T06:36:21;4.40;99.90
20690;DHT22;10504;48.762;8.996;2023-11-18T06:38:51;4.40;99.90
20690;DHT22;10504;48.762;8.996;2023-11-18T06:41:19;4.40;99.90
20690;DHT22;10504;48.762;8.996;2023-11-18T06:43:45;4.40;99.90
20690;DHT22;10504;48.762;8.996;2023-11-18T06:46:28;4.40;99.90
20690;DHT22;10504;48.762;8.996;2023-11-18T06:48:59;4.40;99.90
20690;DHT22;10504;48.762;8.996;2023-11-18T06:51:30;4.50;99.90
20690;DHT22;10504;48.762;8.996;2023-11-18T06:53:57;4.50;99.90
20690;DHT22;10504;48.762;8.996;2023-11-18T06:56:24;4.50;99.90
20690;DHT22;10504;48.762;8.996;2023-11-18T06:58:49;4.50;99.90
20690;DHT22;10504;48.762;8.996;2023-11-18T07:01:15;4.50;99.90
20690;DHT22;10504;48.762;8.996;2023-11-18T07:03:42;4.50;99.90
20690;DHT22;10504;48.762;8.996;2023-11-18T07:06:08;4.50;99.90
20690;DHT22;10504;48.762;8.996;2023-11-18T07:08:35;4.50;99.90
20690;DHT22;10504;48.762;8.996;2023-11-18T07:11:02;4.50;99.90
20690;DHT22;10504;48.762;8.996;2023-11-18T07:13:28;4.60;99.90
20690;DHT22;10504;48.762;8.996;2023-11-18T07:15:54;4.60;99.90
20690;DHT22;10504;48.762;8.996;2023-11-18T07:18:22;4.60;99.90
20690;DHT22;10504;48.762;8.996;2023-11-18T07:20:50;4.60;99.90
20690;DHT22;10504;48.762;8.996;2023-11-18T07:23:18;4.70;99.90
20690;DHT22;10504;48.762;8.996;2023-11-18T07:25:44;4.60;99.90
20690;DHT22;10504;48.762;8.996;2023-11-18T07:28:11;4.60;99.90
20690;DHT22;10504;48.762;8.996;2023-11-18T07:30:37;4.70;99.90
20690;DHT22;10504;48.762;8.996;2023-11-18T07:33:03;4.70;99.90
20690;DHT22;10504;48.762;8.996;2023-11-18T07:35:29;4.70;99.90
20690;DHT22;10504;48.762;8.996;2023-11-18T07:37:55;4.70;99.90
20690;DHT22;10504;48.762;8.996;2023-11-18T07:40:22;4.70;99.90
20690;DHT22;10504;48.762;8.996;2023-11-18T07:42:54;4.70;99.90
20690;DHT22;10504;48.762;8.996;2023-11-18T07:45:21;4.70;99.90
20690;DHT22;10504;48.762;8.996;2023-11-18T07:47:49;4.70;99.90
20690;DHT22;10504;48.762;8.996;2023-11-18T07:50:19;4.70;99.90
20690;DHT22;10504;48.762;8.996;2023-11-18T07:52:48;4.70;99.90
20690;DHT22;10504;48.762;8.996;2023-11-18T07:55:16;4.80;99.90
20690;DHT22;10504;48.762;8.996;2023-11-18T07:57:42;4.80;99.90
20690;DHT22;10504;48.762;8.996;2023-11-18T08:00:09;4.90;99.90
20690;DHT22;10504;48.762;8.996;2023-11-18T08:02:38;4.90;99.90
20690;DHT22;10504;48.762;8.996;2023-11-18T08:05:04;4.90;99.90
20690;DHT22;10504;48.762;8.996;2023-11-18T08:07:36;4.90;99.90
20690;DHT22;10504;48.762;8.996;2023-11-18T08:10:05;5.00;99.90
20690;DHT22;10504;48.762;8.996;2023-11-18T08:12:31;5.00;99.90
20690;DHT22;10504;48.762;8.996;2023-11-18T08:14:57;5.00;99.90
20690;DHT22;10504;48.762;8.996;2023-11-18T08:17:26;5.10;99.90
20690;DHT22;10504;48.762;8.996;2023-11-18T08:19:52;5.10;99.90
20690;DHT22;10504;48.762;8.996;2023-11-18T08:22:19;5.10;99.90
20690;DHT22;10504;48.762;8.996;2023-11-18T08:24:46;5.10;99.90
20690;DHT22;10504;48.762;8.996;2023-11-18T08:27:12;5.10;99.90
20690;DHT22;10504;48.762;8.996;2023-11-18T08:29:37;5.10;99.90
20690;DHT22;10504;48.762;8.996;2023-11-18T08:32:05;5.10;99.90
20690;DHT22;10504;48.762;8.996;2023-11-18T08:34:31;5.20;99.90
20690;DHT22;10504;48.762;8.996;2023-11-18T08:36:59;5.10;99.90
20690;DHT22;10504;48.762;8.996;2023-11-18T08:39:25;5.20;99.90
20690;DHT22;10504;48.762;8.996;2023-11-18T08:41:51;5.20;99.90
20690;DHT22;10504;48.762;8.996;2023-11-18T08:44:17;5.20;99.90
20690;DHT22;10504;48.762;8.996;2023-11-18T08:46:43;5.20;99.90
20690;DHT22;10504;48.762;8.996;2023-11-18T08:49:09;5.30;99.90
20690;DHT22;10504;48.762;8.996;2023-11-18T08:51:40;5.30;99.90
20690;DHT22;10504;48.762;8.996;2023-11-18T08:54:08;5.40;99.90
20690;DHT22;10504;48.762;8.996;2023-11-18T08:56:51;5.40;99.90
20690;DHT22;10504;48.762;8.996;2023-11-18T08:59:20;5.40;99.90
20690;DHT22;10504;48.762;8.996;2023-11-18T09:01:53;5.50;99.90
20690;DHT22;10504;48.762;8.996;2023-11-18T09:04:24;5.50;99.90
20690;DHT22;10504;48.762;8.996;2023-11-18T09:06:53;5.50;99.90
20690;DHT22;10504;48.762;8.996;2023-11-18T09:09:23;5.50;99.90
20690;DHT22;10504;48.762;8.996;2023-11-18T09:11:55;5.50;99.90
20690;DHT22;10504;48.762;8.996;2023-11-18T09:14:22;5.60;99.90
20690;DHT22;10504;48.762;8.996;2023-11-18T09:16:50;5.60;99.90
20690;DHT22;10504;48.762;8.996;2023-11-18T09:19:16;5.70;99.90
20690;DHT22;10504;48.762;8.996;2023-11-18T09:21:43;5.70;99.90
20690;DHT22;10504;48.762;8.996;2023-11-18T09:24:10;5.70;99.90
20690;DHT22;10504;48.762;8.996;2023-11-18T09:26:38;5.70;99.90
20690;DHT22;10504;48.762;8.996;2023-11-18T09:29:07;5.70;99.90
20690;DHT22;10504;48.762;8.996;2023-11-18T09:31:36;5.80;99.90
20690;DHT22;10504;48.762;8.996;2023-11-18T09:34:03;5.80;99.90
20690;DHT22;10504;48.762;8.996;2023-11-18T09:36:32;5.80;99.90
20690;DHT22;10504;48.762;8.996;2023-11-18T09:38:59;5.90;99.90
20690;DHT22;10504;48.762;8.996;2023-11-18T09:41:25;5.90;99.90
20690;DHT22;10504;48.762;8.996;2023-11-18T09:43:52;6.00;99.90
20690;DHT22;10504;48.762;8.996;2023-11-18T09:46:22;6.00;99.90
20690;DHT22;10504;48.762;8.996;2023-11-18T09:49:01;6.00;99.90
20690;DHT22;10504;48.762;8.996;2023-11-18T09:51:41;6.10;99.90
20690;DHT22;10504;48.762;8.996;2023-11-18T09:54:23;6.10;99.90
20690;DHT22;10504;48.762;8.996;2023-11-18T09:57:19;6.10;99.90
20690;DHT22;10504;48.762;8.996;2023-11-18T10:00:12;6.20;99.90
20690;DHT22;10504;48.762;8.996;2023-11-18T10:02:52;6.20;99.90
20690;DHT22;10504;48.762;8.996;2023-11-18T10:05:19;6.20;99.90
20690;DHT22;10504;48.762;8.996;2023-11-18T10:07:49;6.30;99.90
20690;DHT22;10504;48.762;8.996;2023-11-18T10:10:15;6.30;99.90
20690;DHT22;10504;48.762;8.996;2023-11-18T10:12:46;6.40;99.90
20690;DHT22;10504;48.762;8.996;2023-11-18T10:15:18;6.40;99.90
20690;DHT22;10504;48.762;8.996;2023-11-18T10:17:45;6.40;99.90
20690;DHT22;10504;48.762;8.996;2023-11-18T10:20:23;6.50;99.90
20690;DHT22;10504;48.762;8.996;2023-11-18T10:23:10;6.50;99.90
20690;DHT22;10504;48.762;8.996;2023-11-18T10:25:58;6.50;99.90
20690;DHT22;10504;48.762;8.996;2023-11-18T10:28:25;6.50;99.90
20690;DHT22;10504;48.762;8.996;2023-11-18T10:30:59;6.50;99.90
20690;DHT22;10504;48.762;8.996;2023-11-18T10:33:38;6.50;99.90
20690;DHT22;10504;48.762;8.996;2023-11-18T10:36:20;6.50;99.90
20690;DHT22;10504;48.762;8.996;2023-11-18T10:38:52;6.60;99.90
20690;DHT22;10504;48.762;8.996;2023-11-18T10:41:21;6.50;99.90
20690;DHT22;10504;48.762;8.996;2023-11-18T10:43:47;6.60;99.90
20690;DHT22;10504;48.762;8.996;2023-11-18T10:46:16;6.50;99.90
20690;DHT22;10504;48.762;8.996;2023-11-18T10:48:43;6.50;99.90
20690;DHT22;10504;48.762;8.996;2023-11-18T10:51:13;6.50;99.90
20690;DHT22;10504;48.762;8.996;2023-11-18T10:53:43;6.50;99.90
20690;DHT22;10504;48.762;8.996;2023-11-18T10:56:20;6.50;99.90
20690;DHT22;10504;48.762;8.996;2023-11-18T10:59:12;6.50;99.90
20690;DHT22;10504;48.762;8.996;2023-11-18T11:01:42;6.60;99.90
20690;DHT22;10504;48.762;8.996;2023-11-18T11:04:14;6.60;99.90
20690;DHT22;10504;48.762;8.996;2023-11-18T11:06:47;6.60;99.90
20690;DHT22;10504;48.762;8.996;2023-11-18T11:09:21;6.60;99.90
20690;DHT22;10504;48.762;8.996;2023-11-18T11:11:55;6.60;99.90
20690;DHT22;10504;48.762;8.996;2023-11-18T11:14:26;6.60;99.90
20690;DHT22;10504;48.762;8.996;2023-11-18T11:17:07;6.60;99.90
20690;DHT22;10504;48.762;8.996;2023-11-18T11:19:55;6.60;99.90
20690;DHT22;10504;48.762;8.996;2023-11-18T11:22:37;6.50;99.90
20690;DHT22;10504;48.762;8.996;2023-11-18T11:25:10;6.50;99.90
20690;DHT22;10504;48.762;8.996;2023-11-18T11:27:54;6.60;99.90
20690;DHT22;10504;48.762;8.996;2023-11-18T11:30:33;6.60;99.90
20690;DHT22;10504;48.762;8.996;2023-11-18T11:35:53;6.60;99.90
20690;DHT22;10504;48.762;8.996;2023-11-18T11:38:23;6.50;99.90
20690;DHT22;10504;48.762;8.996;2023-11-18T11:40:50;6.50;99.90
20690;DHT22;10504;48.762;8.996;2023-11-18T11:43:18;6.50;99.90
20690;DHT22;10504;48.762;8.996;2023-11-18T11:45:53;6.50;99.90
20690;DHT22;10504;48.762;8.996;2023-11-18T11:48:22;6.50;99.90
20690;DHT22;10504;48.762;8.996;2023-11-18T11:53:35;6.50;99.90
20690;DHT22;10504;48.762;8.996;2023-11-18T11:56:05;6.50;99.90
20690;DHT22;10504;48.762;8.996;2023-11-18T11:58:35;6.50;99.90
20690;DHT22;10504;48.762;8.996;2023-11-18T12:03:50;6.50;99.90
20690;DHT22;10504;48.762;8.996;2023-11-18T12:06:23;6.60;99.90
20690;DHT22;10504;48.762;8.996;2023-11-18T12:08:52;6.60;99.90
20690;DHT22;10504;48.762;8.996;2023-11-18T12:11:19;6.50;99.90
20690;DHT22;10504;48.762;8.996;2023-11-18T12:14:07;6.50;99.90
20690;DHT22;10504;48.762;8.996;2023-11-18T12:17:07;6.50;99.90
20690;DHT22;10504;48.762;8.996;2023-11-18T12:19:42;6.50;99.90
20690;DHT22;10504;48.762;8.996;2023-11-18T12:22:21;6.50;99.90
20690;DHT22;10504;48.762;8.996;2023-11-18T12:27:43;6.50;99.90
20690;DHT22;10504;48.762;8.996;2023-11-18T12:33:00;6.50;99.90
20690;DHT22;10504;48.762;8.996;2023-11-18T12:41:38;6.60;99.90
20690;DHT22;10504;48.762;8.996;2023-11-18T12:44:29;6.50;99.90
20690;DHT22;10504;48.762;8.996;2023-11-18T12:47:04;6.50;99.90
20690;DHT22;10504;48.762;8.996;2023-11-18T12:49:44;6.50;99.90
20690;DHT22;10504;48.762;8.996;2023-11-18T12:52:11;6.50;99.90
20690;DHT22;10504;48.762;8.996;2023-11-18T12:54:40;6.50;99.90
20690;DHT22;10504;48.762;8.996;2023-11-18T12:57:10;6.50;99.90
20690;DHT22;10504;48.762;8.996;2023-11-18T12:59:39;6.50;99.90
20690;DHT22;10504;48.762;8.996;2023-11-18T13:02:11;6.40;99.90
20690;DHT22;10504;48.762;8.996;2023-11-18T13:04:45;6.40;99.90
20690;DHT22;10504;48.762;8.996;2023-11-18T13:07:16;6.40;99.90
20690;DHT22;10504;48.762;8.996;2023-11-18T13:09:46;6.40;99.90
20690;DHT22;10504;48.762;8.996;2023-11-18T13:12:13;6.30;99.90
20690;DHT22;10504;48.762;8.996;2023-11-18T13:14:43;6.40;99.90
20690;DHT22;10504;48.762;8.996;2023-11-18T13:17:10;6.40;99.90
20690;DHT22;10504;48.762;8.996;2023-11-18T13:19:37;6.40;99.90
20690;DHT22;10504;48.762;8.996;2023-11-18T13:22:04;6.40;99.90
20690;DHT22;10504;48.762;8.996;2023-11-18T13:24:33;6.40;99.90
20690;DHT22;10504;48.762;8.996;2023-11-18T13:27:00;6.40;99.90
20690;DHT22;10504;48.762;8.996;2023-11-18T13:29:30;6.40;99.90
20690;DHT22;10504;48.762;8.996;2023-11-18T13:31:56;6.40;99.90
20690;DHT22;10504;48.762;8.996;2023-11-18T13:34:23;6.40;99.90
20690;DHT22;10504;48.762;8.996;2023-11-18T13:36:50;6.40;99.90
20690;DHT22;10504;48.762;8.996;2023-11-18T13:39:19;6.40;99.90
20690;DHT22;10504;48.762;8.996;2023-11-18T13:41:54;6.40;99.90
20690;DHT22;10504;48.762;8.996;2023-11-18T13:44:36;6.40;99.90
20690;DHT22;10504;48.762;8.996;2023-11-18T13:47:06;6.40;99.90
20690;DHT22;10504;48.762;8.996;2023-11-18T13:49:33;6.40;99.90
20690;DHT22;10504;48.762;8.996;2023-11-18T13:52:00;6.40;99.90
20690;DHT22;10504;48.762;8.996;2023-11-18T13:54:29;6.40;99.90
20690;DHT22;10504;48.762;8.996;2023-11-18T13:56:57;6.40;99.90
20690;DHT22;10504;48.762;8.996;2023-11-18T13:59:25;6.40;99.90
20690;DHT22;10504;48.762;8.996;2023-11-18T14:01:55;6.40;99.90
20690;DHT22;10504;48.762;8.996;2023-11-18T14:04:26;6.40;99.90
20690;DHT22;10504;48.762;8.996;2023-11-18T14:06:57;6.40;99.90
20690;DHT22;10504;48.762;8.996;2023-11-18T14:09:23;6.40;99.90
20690;DHT22;10504;48.762;8.996;2023-11-18T14:11:55;6.50;99.90
20690;DHT22;10504;48.762;8.996;2023-11-18T14:14:22;6.50;99.90
20690;DHT22;10504;48.762;8.996;2023-11-18T14:16:48;6.50;99.90
20690;DHT22;10504;48.762;8.996;2023-11-18T14:19:15;6.50;99.90
20690;DHT22;10504;48.762;8.996;2023-11-18T14:21:41;6.50;99.90
20690;DHT22;10504;48.762;8.996;2023-11-18T14:24:10;6.50;99.90
20690;DHT22;10504;48.762;8.996;2023-11-18T14:26:37;6.50;99.90
20690;DHT22;10504;48.762;8.996;2023-11-18T14:29:05;6.50;99.90
20690;DHT22;10504;48.762;8.996;2023-11-18T14:31:32;6.50;99.90
20690;DHT22;10504;48.762;8.996;2023-11-18T14:33:57;6.50;99.90
20690;DHT22;10504;48.762;8.996;2023-11-18T14:36:25;6.50;99.90
20690;DHT22;10504;48.762;8.996;2023-11-18T14:38:51;6.50;99.90
20690;DHT22;10504;48.762;8.996;2023-11-18T14:41:17;6.50;99.90
20690;DHT22;10504;48.762;8.996;2023-11-18T14:43:45;6.50;99.90
20690;DHT22;10504;48.762;8.996;2023-11-18T14:46:11;6.50;99.90
20690;DHT22;10504;48.762;8.996;2023-11-18T14:48:37;6.50;99.90
20690;DHT22;10504;48.762;8.996;2023-11-18T14:51:03;6.50;99.90
20690;DHT22;10504;48.762;8.996;2023-11-18T14:53:30;6.50;99.90
20690;DHT22;10504;48.762;8.996;2023-11-18T14:55:56;6.50;99.90
20690;DHT22;10504;48.762;8.996;2023-11-18T14:58:23;6.50;99.90
20690;DHT22;10504;48.762;8.996;2023-11-18T15:00:51;6.50;99.90
20690;DHT22;10504;48.762;8.996;2023-11-18T15:03:17;6.50;99.90
20690;DHT22;10504;48.762;8.996;2023-11-18T15:05:42;6.50;99.90
20690;DHT22;10504;48.762;8.996;2023-11-18T15:08:09;6.40;99.90
20690;DHT22;10504;48.762;8.996;2023-11-18T15:10:40;6.40;99.90
20690;DHT22;10504;48.762;8.996;2023-11-18T15:13:07;6.40;99.90
20690;DHT22;10504;48.762;8.996;2023-11-18T15:15:38;6.40;99.90
20690;DHT22;10504;48.762;8.996;2023-11-18T15:18:05;6.40;99.90
20690;DHT22;10504;48.762;8.996;2023-11-18T15:20:34;6.40;99.90
20690;DHT22;10504;48.762;8.996;2023-11-18T15:23:00;6.40;99.90
20690;DHT22;10504;48.762;8.996;2023-11-18T15:25:26;6.30;99.90
20690;DHT22;10504;48.762;8.996;2023-11-18T15:27:52;6.40;99.90
20690;DHT22;10504;48.762;8.996;2023-11-18T15:30:18;6.40;99.90
20690;DHT22;10504;48.762;8.996;2023-11-18T15:32:45;6.40;99.90
20690;DHT22;10504;48.762;8.996;2023-11-18T15:35:12;6.40;99.90
20690;DHT22;10504;48.762;8.996;2023-11-18T15:37:39;6.40;99.90
20690;DHT22;10504;48.762;8.996;2023-11-18T15:40:10;6.40;99.90
20690;DHT22;10504;48.762;8.996;2023-11-18T15:42:40;6.40;99.90
20690;DHT22;10504;48.762;8.996;2023-11-18T15:45:13;6.40;99.90
20690;DHT22;10504;48.762;8.996;2023-11-18T15:47:40;6.40;99.90
20690;DHT22;10504;48.762;8.996;2023-11-18T15:50:09;6.40;99.90
20690;DHT22;10504;48.762;8.996;2023-11-18T15:52:44;6.40;99.90
20690;DHT22;10504;48.762;8.996;2023-11-18T15:55:10;6.40;99.90
20690;DHT22;10504;48.762;8.996;2023-11-18T15:57:39;6.40;99.90
20690;DHT22;10504;48.762;8.996;2023-11-18T16:00:06;6.30;99.90
20690;DHT22;10504;48.762;8.996;2023-11-18T16:02:35;6.40;99.90
20690;DHT22;10504;48.762;8.996;2023-11-18T16:05:01;6.40;99.90
20690;DHT22;10504;48.762;8.996;2023-11-18T16:07:28;6.40;99.90
20690;DHT22;10504;48.762;8.996;2023-11-18T16:09:54;6.40;99.90
20690;DHT22;10504;48.762;8.996;2023-11-18T16:12:20;6.40;99.90
20690;DHT22;10504;48.762;8.996;2023-11-18T16:14:45;6.40;99.90
20690;DHT22;10504;48.762;8.996;2023-11-18T16:17:11;6.40;99.90
20690;DHT22;10504;48.762;8.996;2023-11-18T16:19:37;6.40;99.90